createdAt,value
2017-08-26T00:02:00.153Z,5.30
2017-08-26T00:04:26.477Z,5.00
2017-08-26T00:06:52.785Z,8.73
2017-08-26T00:09:19.308Z,7.00
2017-08-26T00:11:45.636Z,5.10
2017-08-26T00:14:11.971Z,5.50
2017-08-26T00:16:38.579Z,6.90
2017-08-26T00:19:05.244Z,6.07
2017-08-26T00:21:31.515Z,5.30
2017-08-26T00:23:57.796Z,4.63
2017-08-26T00:26:24.105Z,4.70
2017-08-26T00:28:50.412Z,5.27
2017-08-26T00:31:16.694Z,5.43
2017-08-26T00:33:42.993Z,5.53
2017-08-26T00:36:09.270Z,4.70
2017-08-26T00:38:35.547Z,5.23
2017-08-26T00:41:01.942Z,5.23
2017-08-26T00:43:28.254Z,5.20
2017-08-26T00:45:54.570Z,5.47
2017-08-26T00:48:20.874Z,7.87
2017-08-26T00:50:47.153Z,4.60
2017-08-26T00:53:13.441Z,6.40
2017-08-26T00:55:39.735Z,4.87
2017-08-26T00:58:06.619Z,5.20
2017-08-26T01:00:32.913Z,3.90
2017-08-26T01:02:59.170Z,4.20
2017-08-26T01:05:25.424Z,4.10
2017-08-26T01:07:51.716Z,3.90
2017-08-26T01:10:17.998Z,3.90
2017-08-26T01:12:44.284Z,4.70
2017-08-26T01:15:10.552Z,3.67
2017-08-26T01:17:36.827Z,4.67
2017-08-26T01:20:03.089Z,3.57
2017-08-26T01:22:29.394Z,4.03
2017-08-26T01:24:55.668Z,3.60
2017-08-26T01:27:21.928Z,3.57
2017-08-26T01:29:48.172Z,3.73
2017-08-26T01:32:14.442Z,3.70
2017-08-26T01:34:40.752Z,4.00
2017-08-26T01:37:07.029Z,4.83
2017-08-26T01:39:33.298Z,4.23
2017-08-26T01:41:59.590Z,4.03
2017-08-26T01:44:25.871Z,3.87
2017-08-26T01:46:52.115Z,3.73
2017-08-26T01:49:18.374Z,5.30
2017-08-26T01:51:44.653Z,3.87
2017-08-26T01:54:10.919Z,3.50
2017-08-26T01:56:37.181Z,4.57
2017-08-26T01:59:03.450Z,3.37
2017-08-26T02:01:29.708Z,3.83
2017-08-26T02:03:55.997Z,3.87
2017-08-26T02:06:22.273Z,4.73
2017-08-26T02:08:49.353Z,3.73
2017-08-26T02:11:15.727Z,3.40
2017-08-26T02:13:42.032Z,3.37
2017-08-26T02:16:08.301Z,3.50
2017-08-26T02:18:35.400Z,4.70
2017-08-26T02:21:01.667Z,3.20
2017-08-26T02:23:28.788Z,4.73
2017-08-26T02:25:55.111Z,5.30
2017-08-26T02:28:21.356Z,5.67
2017-08-26T02:30:47.641Z,3.37
2017-08-26T02:33:13.904Z,3.20
2017-08-26T02:35:40.183Z,2.87
2017-08-26T02:38:06.424Z,2.90
2017-08-26T02:40:32.703Z,4.30
2017-08-26T02:42:58.968Z,3.63
2017-08-26T02:45:25.235Z,4.07
2017-08-26T02:47:51.513Z,3.23
2017-08-26T02:50:17.781Z,3.37
2017-08-26T02:52:44.048Z,2.80
2017-08-26T02:55:10.312Z,3.90
2017-08-26T02:57:36.559Z,2.90
2017-08-26T03:00:02.861Z,2.73
2017-08-26T03:02:29.141Z,5.37
2017-08-26T03:04:55.422Z,3.40
2017-08-26T03:07:21.701Z,3.83
2017-08-26T03:09:47.950Z,3.00
2017-08-26T03:12:14.223Z,3.40
2017-08-26T03:14:40.470Z,2.60
2017-08-26T03:17:06.748Z,2.83
2017-08-26T03:19:33.003Z,3.10
2017-08-26T03:21:59.277Z,3.03
2017-08-26T03:24:25.550Z,4.87
2017-08-26T03:26:52.089Z,2.70
2017-08-26T03:29:18.372Z,2.90
2017-08-26T03:31:44.651Z,3.80
2017-08-26T03:34:10.901Z,4.80
2017-08-26T03:36:37.162Z,3.47
2017-08-26T03:39:03.460Z,3.57
2017-08-26T03:41:29.715Z,3.90
2017-08-26T03:43:55.993Z,3.37
2017-08-26T03:46:22.248Z,2.70
2017-08-26T03:48:49.536Z,3.80
2017-08-26T03:51:15.792Z,3.20
2017-08-26T03:53:42.791Z,3.37
2017-08-26T03:56:10.092Z,3.37
2017-08-26T03:58:36.368Z,5.23
2017-08-26T04:01:02.634Z,2.53
2017-08-26T04:03:28.921Z,2.93
2017-08-26T04:05:55.195Z,3.07
2017-08-26T04:08:21.484Z,4.00
2017-08-26T04:10:47.736Z,3.40
2017-08-26T04:13:14.002Z,3.60
2017-08-26T04:15:40.302Z,4.10
2017-08-26T04:18:06.561Z,2.80
2017-08-26T04:20:32.837Z,2.40
2017-08-26T04:22:59.108Z,2.77
2017-08-26T04:25:25.392Z,2.90
2017-08-26T04:27:51.666Z,3.30
2017-08-26T04:30:17.936Z,3.20
2017-08-26T04:32:44.204Z,3.60
2017-08-26T04:35:10.490Z,3.47
2017-08-26T04:37:36.760Z,2.97
2017-08-26T04:40:03.062Z,3.03
2017-08-26T04:42:29.325Z,2.67
2017-08-26T04:44:55.588Z,4.30
2017-08-26T04:47:21.854Z,4.57
2017-08-26T04:49:48.145Z,2.80
2017-08-26T04:52:14.398Z,3.40
2017-08-26T04:54:40.648Z,3.13
2017-08-26T04:57:06.925Z,6.00
2017-08-26T04:59:33.182Z,2.77
2017-08-26T05:01:59.483Z,3.30
2017-08-26T05:04:25.756Z,3.40
2017-08-26T05:06:52.041Z,3.30
2017-08-26T05:09:18.297Z,3.20
2017-08-26T05:11:44.573Z,2.97
2017-08-26T05:14:10.834Z,4.40
2017-08-26T05:16:37.108Z,4.17
2017-08-26T05:19:03.420Z,3.70
2017-08-26T05:21:29.703Z,3.50
2017-08-26T05:23:55.970Z,3.80
2017-08-26T05:26:22.286Z,2.67
2017-08-26T05:28:48.589Z,3.03
2017-08-26T05:31:14.847Z,3.57
2017-08-26T05:33:41.168Z,3.27
2017-08-26T05:36:07.452Z,3.50
2017-08-26T05:38:33.765Z,2.83
2017-08-26T05:41:00.033Z,4.63
2017-08-26T05:43:26.320Z,3.40
2017-08-26T05:45:52.618Z,3.10
2017-08-26T05:48:18.894Z,3.93
2017-08-26T05:50:45.170Z,3.13
2017-08-26T05:53:11.463Z,3.40
2017-08-26T05:55:37.776Z,3.87
2017-08-26T05:58:04.074Z,3.67
2017-08-26T06:00:30.384Z,6.83
2017-08-26T06:02:56.717Z,3.37
2017-08-26T06:05:23.041Z,8.37
2017-08-26T06:07:49.317Z,3.40
2017-08-26T06:10:15.595Z,4.03
2017-08-26T06:12:41.888Z,3.37
2017-08-26T06:15:08.152Z,3.73
2017-08-26T06:17:34.418Z,3.77
2017-08-26T06:20:00.717Z,3.50
2017-08-26T06:22:27.000Z,4.40
2017-08-26T06:24:53.364Z,3.87
2017-08-26T06:27:19.661Z,3.87
2017-08-26T06:29:46.749Z,3.77
2017-08-26T06:32:13.012Z,4.17
2017-08-26T06:34:39.273Z,4.90
2017-08-26T06:37:05.559Z,7.07
2017-08-26T06:39:31.808Z,5.67
2017-08-26T06:41:58.092Z,6.67
2017-08-26T06:44:24.344Z,5.30
2017-08-26T06:46:50.641Z,6.20
2017-08-26T06:49:16.981Z,5.93
2017-08-26T06:51:44.232Z,5.37
2017-08-26T06:54:10.509Z,8.30
2017-08-26T06:56:36.788Z,5.87
2017-08-26T06:59:03.140Z,7.20
2017-08-26T07:01:29.662Z,5.67
2017-08-26T07:03:55.940Z,6.27
2017-08-26T07:06:22.252Z,5.20
2017-08-26T07:08:48.552Z,4.80
2017-08-26T07:11:14.911Z,4.97
2017-08-26T07:13:41.206Z,5.00
2017-08-26T07:16:07.432Z,5.70
2017-08-26T07:18:34.651Z,8.97
2017-08-26T07:21:00.938Z,7.27
2017-08-26T07:23:27.292Z,10.40
2017-08-26T07:25:53.590Z,9.03
2017-08-26T07:28:20.185Z,9.27
2017-08-26T07:30:46.477Z,4.90
2017-08-26T07:33:13.042Z,6.60
2017-08-26T07:35:39.345Z,5.37
2017-08-26T07:38:05.762Z,7.73
2017-08-26T07:40:32.116Z,12.37
2017-08-26T07:42:58.531Z,6.60
2017-08-26T07:45:25.101Z,6.40
2017-08-26T07:47:51.422Z,9.57
2017-08-26T07:50:17.704Z,8.03
2017-08-26T07:52:44.089Z,10.33
2017-08-26T07:55:10.398Z,8.10
2017-08-26T07:57:36.684Z,8.23
2017-08-26T08:00:02.998Z,6.20
2017-08-26T08:02:29.291Z,7.67
2017-08-26T08:04:55.591Z,12.70
2017-08-26T08:07:21.878Z,10.57
2017-08-26T08:09:48.205Z,5.93
2017-08-26T08:12:14.465Z,5.70
2017-08-26T08:14:40.755Z,6.77
2017-08-26T08:17:07.036Z,5.90
2017-08-26T08:19:33.316Z,5.33
2017-08-26T08:21:59.675Z,6.30
2017-08-26T08:24:25.999Z,6.27
2017-08-26T08:26:52.489Z,6.63
2017-08-26T08:29:19.715Z,5.93
2017-08-26T08:31:45.996Z,5.80
2017-08-26T08:34:12.260Z,6.40
2017-08-26T08:36:38.578Z,5.87
2017-08-26T08:39:04.903Z,5.10
2017-08-26T08:41:31.192Z,6.90
2017-08-26T08:43:57.482Z,6.00
2017-08-26T08:46:23.758Z,5.23
2017-08-26T08:48:50.046Z,5.73
2017-08-26T08:51:16.345Z,7.30
2017-08-26T08:53:42.641Z,6.30
2017-08-26T08:56:08.991Z,7.33
2017-08-26T08:58:35.302Z,6.33
2017-08-26T09:01:01.646Z,5.50
2017-08-26T09:03:28.428Z,6.10
2017-08-26T09:05:54.821Z,6.90
2017-08-26T09:08:21.496Z,9.40
2017-08-26T09:10:47.949Z,7.70
2017-08-26T09:13:15.307Z,7.70
2017-08-26T09:15:42.114Z,5.60
2017-08-26T09:18:08.471Z,8.60
2017-08-26T09:20:34.766Z,7.67
2017-08-26T09:23:01.136Z,6.50
2017-08-26T09:25:27.445Z,7.37
2017-08-26T09:27:53.735Z,5.70
2017-08-26T09:30:20.019Z,7.37
2017-08-26T09:32:46.289Z,6.53
2017-08-26T09:35:13.617Z,5.80
2017-08-26T09:37:39.902Z,5.70
2017-08-26T09:40:06.170Z,6.67
2017-08-26T09:42:32.463Z,7.20
2017-08-26T09:44:58.767Z,6.87
2017-08-26T09:47:25.060Z,5.70
2017-08-26T09:49:51.368Z,5.73
2017-08-26T09:52:17.645Z,5.60
2017-08-26T09:54:43.908Z,6.00
2017-08-26T09:57:10.196Z,5.50
2017-08-26T09:59:36.473Z,5.73
2017-08-26T10:02:02.778Z,5.93
2017-08-26T10:04:29.049Z,6.30
2017-08-26T10:06:55.312Z,5.93
2017-08-26T10:09:21.569Z,5.00
2017-08-26T10:11:47.853Z,5.47
2017-08-26T10:14:14.105Z,5.50
2017-08-26T10:16:40.428Z,5.60
2017-08-26T10:19:06.710Z,5.40
2017-08-26T10:21:32.987Z,5.80
2017-08-26T10:23:59.261Z,5.57
2017-08-26T10:26:25.577Z,5.17
2017-08-26T10:28:51.850Z,5.00
2017-08-26T10:31:18.196Z,5.13
2017-08-26T10:33:44.468Z,5.30
2017-08-26T10:36:10.740Z,5.03
2017-08-26T10:38:37.049Z,6.00
2017-08-26T10:41:03.336Z,5.33
2017-08-26T10:43:29.649Z,5.33
2017-08-26T10:45:55.937Z,4.70
2017-08-26T10:48:22.199Z,5.27
2017-08-26T10:50:48.480Z,5.97
2017-08-26T10:53:14.785Z,7.70
2017-08-26T10:55:41.074Z,5.10
2017-08-26T10:58:07.416Z,5.10
2017-08-26T11:00:33.685Z,5.40
2017-08-26T11:02:59.972Z,5.03
2017-08-26T11:05:26.237Z,6.07
2017-08-26T11:07:52.504Z,4.73
2017-08-26T11:10:18.772Z,5.10
2017-08-26T11:12:45.062Z,4.57
2017-08-26T11:15:11.354Z,5.20
2017-08-26T11:17:37.623Z,4.97
2017-08-26T11:20:03.929Z,4.23
2017-08-26T11:22:31.066Z,4.73
2017-08-26T11:24:57.370Z,4.50
2017-08-26T11:27:24.570Z,4.17
2017-08-26T11:29:51.816Z,4.90
2017-08-26T11:32:18.346Z,4.03
2017-08-26T11:34:45.110Z,5.03
2017-08-26T11:37:11.400Z,4.17
2017-08-26T11:39:37.691Z,4.50
2017-08-26T11:42:03.938Z,4.70
2017-08-26T11:44:30.191Z,4.10
2017-08-26T11:46:56.456Z,4.27
2017-08-26T11:49:22.722Z,3.90
2017-08-26T11:51:48.996Z,3.83
2017-08-26T11:54:15.262Z,4.47
2017-08-26T11:56:41.540Z,4.33
2017-08-26T11:59:07.802Z,3.87
2017-08-26T12:01:34.109Z,3.83
2017-08-26T12:04:00.378Z,4.03
2017-08-26T12:06:26.676Z,4.27
2017-08-26T12:08:52.961Z,3.40
2017-08-26T12:11:19.257Z,4.20
2017-08-26T12:13:46.375Z,6.37
2017-08-26T12:16:12.683Z,4.00
2017-08-26T12:18:38.960Z,3.93
2017-08-26T12:21:05.234Z,4.40
2017-08-26T12:23:31.641Z,4.20
2017-08-26T12:25:57.954Z,3.63
2017-08-26T12:28:24.207Z,3.60
2017-08-26T12:30:50.494Z,5.80
2017-08-26T12:33:16.782Z,3.60
2017-08-26T12:35:43.031Z,4.20
2017-08-26T12:38:09.297Z,3.90
2017-08-26T12:40:35.569Z,4.63
2017-08-26T12:43:02.107Z,4.73
2017-08-26T12:45:28.401Z,3.60
2017-08-26T12:47:54.679Z,4.47
2017-08-26T12:50:20.932Z,3.40
2017-08-26T12:52:47.178Z,3.90
2017-08-26T12:55:13.429Z,4.37
2017-08-26T12:57:39.665Z,3.03
2017-08-26T13:00:05.992Z,4.47
2017-08-26T13:02:32.238Z,3.70
2017-08-26T13:04:58.523Z,4.50
2017-08-26T13:07:24.758Z,3.80
2017-08-26T13:09:50.996Z,4.33
2017-08-26T13:12:17.263Z,3.70
2017-08-26T13:14:43.652Z,4.57
2017-08-26T13:17:09.897Z,3.70
2017-08-26T13:19:36.163Z,3.67
2017-08-26T13:22:02.397Z,4.70
2017-08-26T13:24:28.656Z,3.90
2017-08-26T13:26:54.900Z,4.90
2017-08-26T13:29:21.186Z,4.60
2017-08-26T13:31:47.427Z,5.20
2017-08-26T13:34:13.656Z,3.60
2017-08-26T13:36:39.932Z,5.20
2017-08-26T13:39:06.168Z,4.83
2017-08-26T13:41:32.449Z,4.00
2017-08-26T13:43:58.806Z,4.47
2017-08-26T13:46:25.072Z,4.57
2017-08-26T13:48:51.334Z,4.60
2017-08-26T13:51:17.612Z,4.10
2017-08-26T13:53:43.859Z,4.33
2017-08-26T13:56:10.117Z,4.40
2017-08-26T13:58:36.401Z,4.73
2017-08-26T14:01:02.667Z,6.70
2017-08-26T14:03:28.908Z,3.57
2017-08-26T14:05:55.176Z,4.13
2017-08-26T14:08:28.348Z,3.83
2017-08-26T14:10:54.622Z,4.03
2017-08-26T14:13:20.901Z,4.40
2017-08-26T14:15:47.149Z,4.43
2017-08-26T14:18:13.408Z,4.37
2017-08-26T14:20:39.631Z,4.47
2017-08-26T14:23:05.916Z,3.43
2017-08-26T14:25:32.148Z,3.93
2017-08-26T14:27:58.396Z,4.50
2017-08-26T14:30:24.622Z,4.20
2017-08-26T14:32:50.882Z,4.23
2017-08-26T14:35:17.155Z,4.40
2017-08-26T14:37:43.428Z,4.10
2017-08-26T14:40:09.660Z,4.55
2017-08-26T14:42:38.103Z,4.30
2017-08-26T14:45:04.344Z,4.43
2017-08-26T14:47:30.576Z,4.70
2017-08-26T14:49:56.833Z,4.63
2017-08-26T14:52:23.082Z,4.90
2017-08-26T14:54:49.316Z,4.73
2017-08-26T14:57:15.550Z,4.40
2017-08-26T14:59:41.818Z,4.80
2017-08-26T15:02:08.071Z,4.37
2017-08-26T15:04:34.326Z,4.60
2017-08-26T15:07:00.570Z,4.80
2017-08-26T15:09:26.865Z,4.37
2017-08-26T15:11:53.099Z,4.40
2017-08-26T15:14:19.344Z,4.37
2017-08-26T15:16:45.596Z,4.83
2017-08-26T15:19:11.831Z,4.53
2017-08-26T15:21:38.064Z,4.90
2017-08-26T15:24:04.303Z,4.73
2017-08-26T15:26:30.533Z,4.70
2017-08-26T15:28:56.804Z,5.33
2017-08-26T15:31:23.045Z,4.23
2017-08-26T15:33:49.355Z,4.77
2017-08-26T15:36:15.614Z,5.67
2017-08-26T15:38:41.845Z,5.43
2017-08-26T15:41:08.104Z,5.43
2017-08-26T15:43:34.333Z,5.10
2017-08-26T15:46:00.578Z,5.13
2017-08-26T15:48:26.824Z,5.67
2017-08-26T15:50:53.081Z,5.33
2017-08-26T15:53:19.346Z,7.20
2017-08-26T15:55:45.618Z,5.77
2017-08-26T15:58:11.871Z,5.63
2017-08-26T16:00:38.121Z,6.77
2017-08-26T16:03:04.420Z,5.80
2017-08-26T16:05:30.718Z,5.27
2017-08-26T16:07:56.986Z,5.60
2017-08-26T16:10:23.237Z,5.23
2017-08-26T16:12:49.551Z,5.40
2017-08-26T16:15:15.829Z,5.60
2017-08-26T16:17:42.080Z,5.50
2017-08-26T16:20:08.322Z,5.57
2017-08-26T16:22:34.596Z,5.53
2017-08-26T16:25:00.941Z,5.80
2017-08-26T16:27:27.199Z,6.00
2017-08-26T16:29:53.463Z,6.60
2017-08-26T16:32:19.716Z,6.50
2017-08-26T16:34:45.997Z,6.00
2017-08-26T16:37:12.278Z,6.90
2017-08-26T16:39:38.533Z,5.90
2017-08-26T16:42:04.809Z,6.27
2017-08-26T16:44:31.045Z,6.27
2017-08-26T16:46:57.342Z,6.50
2017-08-26T16:49:23.660Z,6.40
2017-08-26T16:51:49.868Z,6.20
2017-08-26T16:54:16.127Z,6.40
2017-08-26T16:56:42.398Z,6.37
2017-08-26T16:59:08.652Z,6.77
2017-08-26T17:01:34.886Z,6.30
2017-08-26T17:04:01.128Z,6.97
2017-08-26T17:06:27.396Z,6.47
2017-08-26T17:08:53.676Z,6.00
2017-08-26T17:11:19.912Z,6.77
2017-08-26T17:13:46.157Z,6.30
2017-08-26T17:16:12.391Z,6.37
2017-08-26T17:18:38.630Z,6.10
2017-08-26T17:21:04.918Z,6.80
2017-08-26T17:23:31.184Z,6.37
2017-08-26T17:25:57.432Z,6.30
2017-08-26T17:28:23.691Z,5.93
2017-08-26T17:30:49.964Z,7.30
2017-08-26T17:33:16.205Z,6.17
2017-08-26T17:35:43.488Z,6.80
2017-08-26T17:38:09.741Z,6.60
2017-08-26T17:40:36.000Z,6.77
2017-08-26T17:43:02.237Z,7.83
2017-08-26T17:45:28.464Z,7.03
2017-08-26T17:47:54.698Z,8.20
2017-08-26T17:50:20.956Z,6.73
2017-08-26T17:52:47.888Z,7.67
2017-08-26T17:55:14.117Z,7.50
2017-08-26T17:57:40.387Z,7.10
2017-08-26T18:00:06.636Z,6.50
2017-08-26T18:02:32.872Z,8.00
2017-08-26T18:04:59.114Z,7.83
2017-08-26T18:07:25.340Z,7.80
2017-08-26T18:09:51.572Z,7.47
2017-08-26T18:12:17.810Z,7.80
2017-08-26T18:14:44.052Z,7.47
2017-08-26T18:17:10.274Z,7.77
2017-08-26T18:19:36.605Z,7.73
2017-08-26T18:22:02.864Z,8.50
2017-08-26T18:24:29.125Z,7.93
2017-08-26T18:26:55.398Z,7.40
2017-08-26T18:29:21.613Z,8.63
2017-08-26T18:31:47.845Z,9.13
2017-08-26T18:34:14.084Z,8.17
2017-08-26T18:36:40.311Z,8.83
2017-08-26T18:39:06.544Z,8.10
2017-08-26T18:41:32.761Z,8.03
2017-08-26T18:43:59.009Z,8.00
2017-08-26T18:46:25.241Z,8.67
2017-08-26T18:48:51.484Z,8.70
2017-08-26T18:51:17.734Z,8.37
2017-08-26T18:53:43.958Z,10.50
2017-08-26T18:56:10.373Z,10.20
2017-08-26T18:58:36.600Z,10.57
2017-08-26T19:01:02.842Z,10.60
2017-08-26T19:03:29.101Z,9.20
2017-08-26T19:05:55.359Z,9.73
2017-08-26T19:08:21.576Z,10.10
2017-08-26T19:10:47.832Z,10.00
2017-08-26T19:13:14.167Z,9.83
2017-08-26T19:15:40.416Z,10.20
2017-08-26T19:18:06.646Z,10.47
2017-08-26T19:20:33.037Z,9.33
2017-08-26T19:22:59.328Z,10.17
2017-08-26T19:25:25.553Z,10.43
2017-08-26T19:27:52.968Z,9.13
2017-08-26T19:30:19.271Z,10.20
2017-08-26T19:32:45.532Z,9.30
2017-08-26T19:35:11.779Z,9.63
2017-08-26T19:37:38.064Z,9.50
2017-08-26T19:40:04.281Z,9.80
2017-08-26T19:42:30.550Z,9.77
2017-08-26T19:44:56.828Z,9.70
2017-08-26T19:47:23.200Z,10.07
2017-08-26T19:49:49.444Z,10.97
2017-08-26T19:52:15.696Z,10.10
2017-08-26T19:54:41.970Z,10.00
2017-08-26T19:57:08.232Z,9.57
2017-08-26T19:59:34.520Z,9.10
2017-08-26T20:02:00.799Z,9.70
2017-08-26T20:04:27.051Z,9.73
2017-08-26T20:06:53.317Z,10.50
2017-08-26T20:09:19.580Z,10.37
2017-08-26T20:11:45.840Z,10.13
2017-08-26T20:14:12.126Z,10.10
2017-08-26T20:16:38.390Z,10.13
2017-08-26T20:19:04.655Z,10.57
2017-08-26T20:21:30.873Z,9.97
2017-08-26T20:23:57.148Z,10.57
2017-08-26T20:26:23.433Z,10.17
2017-08-26T20:28:49.697Z,10.40
2017-08-26T20:31:15.936Z,10.60
2017-08-26T20:33:42.218Z,10.67
2017-08-26T20:36:08.484Z,10.90
2017-08-26T20:38:34.734Z,10.13
2017-08-26T20:41:00.978Z,10.57
2017-08-26T20:43:27.203Z,9.73
2017-08-26T20:45:53.464Z,10.37
2017-08-26T20:48:19.693Z,10.13
2017-08-26T20:50:45.928Z,11.00
2017-08-26T20:53:12.158Z,10.00
2017-08-26T20:55:38.410Z,9.93
2017-08-26T20:58:04.689Z,9.47
2017-08-26T21:00:31.899Z,10.40
2017-08-26T21:02:58.257Z,10.37
2017-08-26T21:05:24.555Z,10.30
2017-08-26T21:07:50.836Z,10.27
2017-08-26T21:10:17.164Z,10.30
2017-08-26T21:12:43.475Z,10.60
2017-08-26T21:15:10.721Z,10.43
2017-08-26T21:17:37.080Z,9.40
2017-08-26T21:20:03.417Z,10.30
2017-08-26T21:22:29.697Z,10.53
2017-08-26T21:24:56.021Z,10.00
2017-08-26T21:27:22.296Z,10.93
2017-08-26T21:29:48.597Z,10.30
2017-08-26T21:32:15.169Z,10.93
2017-08-26T21:34:41.440Z,10.60
2017-08-26T21:37:07.716Z,11.23
2017-08-26T21:39:33.997Z,11.90
2017-08-26T21:42:00.307Z,9.50
2017-08-26T21:44:26.597Z,10.23
2017-08-26T21:46:52.888Z,11.87
2017-08-26T21:49:19.169Z,11.80
2017-08-26T21:51:45.441Z,11.53
2017-08-26T21:54:11.798Z,11.87
2017-08-26T21:56:38.079Z,11.13
2017-08-26T21:59:04.353Z,11.30
2017-08-26T22:01:30.662Z,10.50
2017-08-26T22:03:56.949Z,10.90
2017-08-26T22:06:23.257Z,11.47
2017-08-26T22:08:49.592Z,10.20
2017-08-26T22:11:15.861Z,11.43
2017-08-26T22:13:43.141Z,11.27
2017-08-26T22:16:09.407Z,11.40
2017-08-26T22:18:35.686Z,11.83
2017-08-26T22:21:02.921Z,11.20
2017-08-26T22:23:29.213Z,11.73
2017-08-26T22:25:55.509Z,12.60
2017-08-26T22:28:21.897Z,11.80
2017-08-26T22:30:48.320Z,11.37
2017-08-26T22:33:14.672Z,11.00
2017-08-26T22:35:41.053Z,12.07
2017-08-26T22:38:07.599Z,12.30
2017-08-26T22:40:34.634Z,12.23
2017-08-26T22:43:00.932Z,13.30
2017-08-26T22:45:27.311Z,11.50
2017-08-26T22:47:53.624Z,12.30
2017-08-26T22:50:19.926Z,13.13
2017-08-26T22:52:46.202Z,12.97
2017-08-26T22:55:12.571Z,12.60
2017-08-26T22:57:38.859Z,12.20
2017-08-26T23:00:05.146Z,12.53
2017-08-26T23:02:31.447Z,12.63
2017-08-26T23:04:57.748Z,14.20
2017-08-26T23:07:24.015Z,13.37
2017-08-26T23:09:50.307Z,13.10
2017-08-26T23:12:16.621Z,13.00
2017-08-26T23:14:42.899Z,14.23
2017-08-26T23:17:09.201Z,13.90
2017-08-26T23:19:35.510Z,14.10
2017-08-26T23:22:01.840Z,13.20
2017-08-26T23:24:28.184Z,14.30
2017-08-26T23:26:54.509Z,12.93
2017-08-26T23:29:20.790Z,16.00
2017-08-26T23:31:47.302Z,15.83
2017-08-26T23:34:13.661Z,15.53
2017-08-26T23:36:39.914Z,14.60
2017-08-26T23:39:06.222Z,16.80
2017-08-26T23:41:32.489Z,15.40
2017-08-26T23:43:58.784Z,16.70
2017-08-26T23:46:25.065Z,16.90
2017-08-26T23:48:51.398Z,15.50
2017-08-26T23:51:17.677Z,16.27
2017-08-26T23:53:43.937Z,18.40
2017-08-26T23:56:10.229Z,16.77
2017-08-26T23:58:36.508Z,16.67
